Time;durP1;ratioP1;P1;durP2;ratioP2;P2;SDS_P1;SDS_P2;PMS_P1;PMS_P2;Temp;Humidity;BMP_temperature;BMP_pressure;BME280_temperature;BME280_humidity;BME280_pressure;Samples;Min_cycle;Max_cycle;Signal;HPM_P1;HPM_P2
2022/06/12 00:00:13;;;;;;;11.98;7.93;;;;;;;17.43;65.40;99653.53;5203073;28;20072;-68
2022/06/12 00:03:04;;;;;;;;;;;;;;;17.36;65.62;99664.94;5201662;28;20060;-70
2022/06/12 00:05:56;;;;;;;13.93;8.18;;;;;;;17.54;65.40;99672.75;5202953;28;19944;-69
2022/06/12 00:08:47;;;;;;;15.52;8.60;;;;;;;17.24;66.21;99650.22;5203785;28;20095;-70
2022/06/12 00:11:44;;;;;;;19.65;8.88;;;;;;;17.26;67.08;99666.97;5197461;28;20479;-70
2022/06/12 00:14:35;;;;;;;16.73;8.90;;;;;;;17.17;66.47;99659.97;5188259;28;20072;-71
2022/06/12 00:17:25;;;;;;;13.65;8.13;;;;;;;17.05;65.85;99656.81;5203274;28;20061;-72
2022/06/12 00:20:17;;;;;;;16.20;8.75;;;;;;;17.25;66.47;99668.00;5203343;28;20379;-70
2022/06/12 00:23:11;;;;;;;14.50;8.88;;;;;;;17.20;66.26;99667.66;5203485;28;20068;-69
2022/06/12 00:26:01;;;;;;;16.03;8.50;;;;;;;17.12;66.54;99670.38;5189277;28;20142;-73
2022/06/12 00:28:57;;;;;;;18.70;9.40;;;;;;;17.06;66.49;99665.69;5203244;28;20314;-72
2022/06/12 00:31:54;;;;;;;13.85;7.95;;;;;;;16.89;65.36;99665.69;5203282;28;20123;-70
2022/06/12 00:34:49;;;;;;;16.40;8.50;;;;;;;17.11;66.28;99655.28;5203047;28;20433;-70
2022/06/12 00:37:38;;;;;;;;;;;;;;;16.99;66.32;99664.69;5190400;28;20057;-72
2022/06/12 00:40:28;;;;;;;13.15;8.45;;;;;;;16.99;66.49;99657.47;5197729;28;19921;-72
2022/06/12 00:43:19;;;;;;;10.80;8.40;;;;;;;16.97;66.69;99654.13;5188337;28;20159;-70
2022/06/12 00:46:35;;;;;;;18.08;9.00;;;;;;;16.96;66.92;99659.66;5168921;28;20500;-72
2022/06/12 00:49:39;;;;;;;11.88;8.35;;;;;;;16.93;66.34;99668.88;5202811;28;20142;-70
2022/06/12 00:52:35;;;;;;;12.75;8.93;;;;;;;16.94;66.21;99661.66;5201821;28;20054;-72
2022/06/12 00:55:27;;;;;;;11.40;7.68;;;;;;;16.84;66.21;99668.03;5183500;28;20057;-71
2022/06/12 00:58:22;;;;;;;13.07;7.90;;;;;;;16.78;66.58;99662.50;5193133;28;20068;-71
2022/06/12 01:01:27;;;;;;;14.93;7.97;;;;;;;16.71;66.05;99662.28;5200794;28;20064;-70
2022/06/12 01:07:32;;;;;;;12.10;8.95;;;;;;;16.77;67.37;99660.84;5202491;28;20053;-69
2022/06/12 01:10:28;;;;;;;13.80;9.30;;;;;;;16.79;67.28;99664.19;5202873;28;20045;-70
2022/06/12 01:13:23;;;;;;;13.20;8.45;;;;;;;16.74;67.45;99667.31;5203498;28;20057;-69
2022/06/12 01:16:17;;;;;;;14.70;8.68;;;;;;;16.66;66.93;99654.78;5187583;28;20049;-70
2022/06/12 01:19:14;;;;;;;12.90;8.43;;;;;;;16.66;66.42;99662.81;5184949;28;20056;-68
2022/06/12 01:22:22;;;;;;;14.98;8.80;;;;;;;16.61;66.33;99653.59;5186976;28;20053;-70
2022/06/12 01:25:51;;;;;;;13.88;8.15;;;;;;;16.55;67.14;99655.09;5187621;28;20045;-70
2022/06/12 01:28:50;;;;;;;13.10;8.57;;;;;;;16.65;67.32;99652.25;5201461;28;20053;-69
2022/06/12 01:32:00;;;;;;;14.90;9.30;;;;;;;16.51;67.39;99653.75;5201315;28;20049;-73
2022/06/12 01:35:00;;;;;;;12.30;8.05;;;;;;;16.43;66.92;99656.44;5196766;28;20042;-70
2022/06/12 01:38:21;;;;;;;11.13;7.53;;;;;;;16.41;66.97;99653.06;5200673;28;20097;-70
2022/06/12 01:41:36;;;;;;;13.90;8.05;;;;;;;16.44;67.02;99661.59;5200860;28;20507;-70
2022/06/12 01:44:55;;;;;;;15.82;7.82;;;;;;;16.47;67.64;99659.63;5181553;28;20378;-71
2022/06/12 01:48:16;;;;;;;12.90;8.68;;;;;;;16.52;67.54;99655.41;5190853;28;20530;-71
2022/06/12 01:51:19;;;;;;;15.07;9.00;;;;;;;16.52;67.93;99639.34;5197466;28;20046;-69
2022/06/12 01:54:20;;;;;;;10.05;8.05;;;;;;;16.49;68.26;99653.09;5191476;28;20064;-73
2022/06/12 01:57:19;;;;;;;16.45;8.55;;;;;;;16.33;67.77;99653.91;5192112;28;20108;-71
2022/06/12 02:00:14;;;;;;;9.65;8.15;;;;;;;16.35;67.33;99651.88;5180353;28;20530;-72
2022/06/12 02:03:13;;;;;;;14.32;7.90;;;;;;;16.35;67.31;99637.66;5197856;28;20084;-72
2022/06/12 02:06:19;;;;;;;11.00;7.72;;;;;;;16.39;66.78;99644.34;5185849;28;20057;-72
2022/06/12 02:09:16;;;;;;;13.88;8.10;;;;;;;16.48;67.44;99654.06;5201676;28;20535;-73
2022/06/12 02:15:58;;;;;;;10.40;8.10;;;;;;;16.39;68.09;99650.56;5195808;28;20049;-74
2022/06/12 02:18:54;;;;;;;14.80;9.40;;;;;;;16.42;68.75;99644.91;5194672;28;20099;-74
2022/06/12 02:22:04;;;;;;;12.05;9.32;;;;;;;16.33;67.79;99658.44;5225263;22;20394;-74
2022/06/12 02:25:08;;;;;;;14.77;9.38;;;;;;;16.31;68.17;99653.22;5223741;28;20071;-75
2022/06/12 02:28:04;;;;;;;14.10;9.38;;;;;;;16.32;67.62;99646.84;5238709;28;20057;-74
2022/06/12 02:31:00;;;;;;;13.10;8.20;;;;;;;16.20;68.15;99645.53;5244553;28;20478;-74
2022/06/12 02:34:15;;;;;;;14.13;8.40;;;;;;;16.22;67.38;99643.50;5230753;28;20055;-74
2022/06/12 02:37:13;;;;;;;15.10;8.68;;;;;;;16.11;66.88;99631.28;5246398;28;20048;-74
2022/06/12 02:40:12;;;;;;;14.10;8.30;;;;;;;16.21;67.59;99644.50;5239239;28;20406;-73
2022/06/12 02:43:12;;;;;;;14.73;7.80;;;;;;;16.09;66.59;99648.47;5229611;28;20292;-75
2022/06/12 02:46:08;;;;;;;11.13;7.85;;;;;;;15.98;67.55;99645.13;5213285;28;20114;-74
2022/06/12 02:48:59;;;;;;;13.15;7.80;;;;;;;16.03;67.53;99639.28;5243517;28;20483;-75
2022/06/12 02:52:06;;;;;;;11.73;8.98;;;;;;;16.05;68.83;99641.78;5243887;28;20072;-74
2022/06/12 02:54:59;;;;;;;15.43;9.20;;;;;;;16.11;67.85;99649.16;5240689;28;20186;-73
2022/06/12 02:58:04;;;;;;;15.27;9.55;;;;;;;16.30;68.28;99654.22;5241621;28;20071;-74
2022/06/12 03:00:54;;;;;;;16.90;9.48;;;;;;;16.42;68.44;99644.91;5244609;28;20040;-73
2022/06/12 03:04:02;;;;;;;14.55;9.77;;;;;;;16.12;69.13;99640.13;5244649;28;20149;-74
2022/06/12 03:06:53;;;;;;;15.48;9.32;;;;;;;16.08;68.60;99636.94;5242740;28;20052;-71
2022/06/12 03:09:43;;;;;;;13.18;10.00;;;;;;;16.12;69.23;99640.97;5228534;28;20059;-72
2022/06/12 03:12:34;;;;;;;16.65;9.07;;;;;;;16.19;69.23;99649.16;5243817;28;20468;-72
2022/06/12 03:15:28;;;;;;;17.10;9.73;;;;;;;16.17;69.30;99645.84;5243736;28;20139;-72
2022/06/12 03:18:32;;;;;;;16.02;9.18;;;;;;;16.11;69.39;99641.97;5228739;28;20447;-72
2022/06/12 03:21:30;;;;;;;16.00;9.07;;;;;;;16.19;68.48;99643.81;5221128;28;20528;-72
2022/06/12 03:24:25;;;;;;;14.67;9.73;;;;;;;16.29;68.85;99646.34;5231010;28;20059;-72
2022/06/12 03:27:43;;;;;;;13.85;8.82;;;;;;;16.21;69.16;99631.97;5244462;28;20210;-73
2022/06/12 03:30:59;;;;;;;16.23;8.52;;;;;;;16.27;68.53;99646.53;5244072;28;20504;-72
2022/06/12 03:34:02;;;;;;;13.95;9.35;;;;;;;16.23;68.33;99642.50;5219004;28;20197;-72
2022/06/12 03:37:01;;;;;;;11.23;8.90;;;;;;;16.26;69.54;99646.69;5237934;28;20529;-72
2022/06/12 03:40:07;;;;;;;12.27;8.85;;;;;;;16.26;69.92;99644.00;5225948;28;20041;-71
2022/06/12 03:43:15;;;;;;;16.48;8.13;;;;;;;16.27;70.44;99648.38;5245438;28;20486;-72
2022/06/12 03:46:15;;;;;;;19.30;9.07;;;;;;;16.52;69.29;99649.22;5244439;28;20053;-72
2022/06/12 03:49:14;;;;;;;13.30;8.43;;;;;;;16.12;69.71;99630.25;5244544;28;20167;-72
2022/06/12 03:52:18;;;;;;;15.30;8.68;;;;;;;15.89;69.09;99594.44;5244007;28;20048;-72
2022/06/12 03:58:57;;;;;;;12.75;8.93;;;;;;;16.15;70.83;99659.38;5232887;28;20290;-72
2022/06/12 04:01:50;;;;;;;12.70;8.18;;;;;;;16.30;69.73;99662.25;5228365;28;20063;-72
2022/06/12 04:04:42;;;;;;;15.40;8.63;;;;;;;16.36;69.54;99661.59;5228907;28;20064;-72
2022/06/12 04:07:45;;;;;;;14.45;9.57;;;;;;;16.34;69.63;99671.63;5229319;28;20059;-72
2022/06/12 04:10:37;;;;;;;12.35;9.32;;;;;;;16.22;70.41;99667.56;5231771;28;20170;-72
2022/06/12 04:13:29;;;;;;;14.25;8.30;;;;;;;16.20;69.93;99662.41;5244584;28;20059;-73
2022/06/12 04:16:28;;;;;;;14.45;8.68;;;;;;;16.40;69.75;99672.81;5214856;28;20068;-72
2022/06/12 04:19:22;;;;;;;12.50;8.60;;;;;;;16.31;70.34;99673.78;5244407;28;20509;-72
2022/06/12 04:22:15;;;;;;;14.82;8.98;;;;;;;16.17;70.20;99677.94;5243173;28;20232;-72
2022/06/12 04:25:28;;;;;;;10.93;8.00;;;;;;;16.20;70.21;99666.94;5234304;28;20055;-72
2022/06/12 04:28:41;;;;;;;17.52;7.97;;;;;;;16.30;68.62;99667.63;5228355;28;20049;-72
2022/06/12 04:31:33;;;;;;;11.98;8.35;;;;;;;16.42;69.38;99673.47;5242847;28;20049;-72
2022/06/12 04:34:40;;;;;;;11.38;8.32;;;;;;;16.35;69.04;99675.97;5243572;28;20075;-72
2022/06/12 04:37:32;;;;;;;9.90;7.85;;;;;;;16.33;69.70;99678.00;5228371;28;20559;-72
2022/06/12 04:40:26;;;;;;;11.13;7.45;;;;;;;16.39;68.82;99674.66;5243212;28;20135;-72
2022/06/12 04:43:16;;;;;;;;;;;;;;;16.48;69.25;99670.13;5243890;28;20063;-72
2022/06/12 04:46:07;;;;;;;13.80;8.35;;;;;;;16.57;68.91;99671.00;5243359;28;20089;-72
2022/06/12 04:48:59;;;;;;;12.35;7.15;;;;;;;16.64;68.50;99682.72;5243460;28;20051;-72
2022/06/12 04:51:52;;;;;;;11.40;7.95;;;;;;;16.72;68.47;99681.88;5242961;28;20553;-72
2022/06/12 04:54:44;;;;;;;12.65;8.23;;;;;;;16.80;69.41;99681.94;5238654;28;20052;-72
2022/06/12 04:57:34;;;;;;;11.90;7.65;;;;;;;16.91;67.67;99686.94;5243402;28;20048;-73
2022/06/12 05:00:24;;;;;;;10.25;7.18;;;;;;;16.90;68.43;99685.28;5242017;28;20048;-72
2022/06/12 05:03:15;;;;;;;14.60;7.82;;;;;;;16.96;68.40;99689.13;5243424;28;20051;-72
2022/06/12 05:06:06;;;;;;;14.60;8.50;;;;;;;17.07;68.87;99683.41;5243240;28;20060;-72
2022/06/12 05:08:56;;;;;;;13.57;8.40;;;;;;;17.22;68.04;99680.88;5243272;28;20080;-73
2022/06/12 05:11:47;;;;;;;11.73;8.80;;;;;;;17.28;68.00;99683.72;5242738;28;20048;-72
2022/06/12 05:14:38;;;;;;;13.20;8.40;;;;;;;17.42;67.06;99679.53;5242430;28;20060;-73
2022/06/12 05:17:28;;;;;;;15.90;9.60;;;;;;;17.49;67.87;99685.03;5227571;28;20479;-72
2022/06/12 05:20:23;;;;;;;16.75;9.85;;;;;;;17.81;67.85;99690.34;5215447;28;20055;-72
2022/06/12 05:23:13;;;;;;;11.70;9.85;;;;;;;17.85;67.25;99666.69;5242977;28;20139;-72
2022/06/12 05:26:05;;;;;;;15.00;10.00;;;;;;;18.19;66.82;99686.97;5228117;28;20076;-72
2022/06/12 05:28:55;;;;;;;15.32;10.45;;;;;;;18.25;66.24;99675.53;5241928;28;20040;-72
2022/06/12 05:31:46;;;;;;;16.92;10.48;;;;;;;18.31;67.22;99681.03;5241953;28;20133;-73
2022/06/12 05:34:37;;;;;;;14.90;10.25;;;;;;;18.34;67.25;99670.94;5243274;28;20693;-72
2022/06/12 05:37:27;;;;;;;15.10;9.88;;;;;;;18.55;67.02;99685.41;5241176;28;20114;-72
2022/06/12 05:40:27;;;;;;;15.30;10.70;;;;;;;18.65;66.97;99677.13;5242634;28;20107;-72
2022/06/12 05:43:17;;;;;;;13.30;9.90;;;;;;;18.76;66.69;99684.78;5243011;28;20071;-74
2022/06/12 05:46:09;;;;;;;12.85;9.63;;;;;;;18.84;65.68;99677.66;5238865;28;20087;-73
2022/06/12 05:48:59;;;;;;;20.55;9.95;;;;;;;18.99;64.70;99679.38;5242579;28;20142;-73
2022/06/12 05:51:50;;;;;;;15.98;9.70;;;;;;;19.08;64.60;99676.63;5232060;28;20117;-72
2022/06/12 05:54:41;;;;;;;14.50;9.98;;;;;;;19.10;64.88;99677.25;5243052;28;20075;-72
2022/06/12 05:57:31;;;;;;;11.73;9.48;;;;;;;18.98;64.43;99668.81;5241321;28;20189;-73
2022/06/12 06:00:27;;;;;;;14.85;9.35;;;;;;;19.41;63.37;99675.28;5241867;28;20178;-73
2022/06/12 06:03:17;;;;;;;13.70;9.57;;;;;;;19.51;63.28;99674.19;5243866;28;20091;-73
2022/06/12 06:06:09;;;;;;;16.73;9.07;;;;;;;19.41;63.89;99672.59;5232767;28;20068;-73
2022/06/12 06:09:00;;;;;;;15.23;9.32;;;;;;;19.64;62.89;99679.78;5240051;28;20417;-73
2022/06/12 06:11:50;;;;;;;15.10;8.93;;;;;;;19.70;62.65;99669.13;5230002;28;20064;-72
2022/06/12 06:14:40;;;;;;;16.95;9.32;;;;;;;19.76;63.46;99675.59;5242557;28;20056;-72
2022/06/12 06:17:31;;;;;;;16.10;8.93;;;;;;;20.11;61.16;99679.34;5246757;28;20193;-72
2022/06/12 06:20:32;;;;;;;15.70;9.00;;;;;;;20.21;60.78;99678.22;5209320;28;20071;-71
2022/06/12 06:23:28;;;;;;;10.23;7.65;;;;;;;20.22;60.89;99677.19;5229171;28;20067;-70
2022/06/12 06:26:19;;;;;;;11.80;7.80;;;;;;;20.42;61.39;99678.25;5246207;28;20044;-71
2022/06/12 06:29:10;;;;;;;13.10;7.72;;;;;;;20.65;60.16;99684.31;5246154;28;20764;-71
2022/06/12 06:32:00;;;;;;;12.70;8.00;;;;;;;20.65;60.79;99680.78;5244969;28;20051;-71
2022/06/12 06:34:50;;;;;;;14.07;8.55;;;;;;;20.74;59.74;99684.22;5232777;28;20045;-71
2022/06/12 06:37:41;;;;;;;15.77;9.40;;;;;;;20.86;61.41;99686.19;5242549;28;20044;-73
2022/06/12 06:40:33;;;;;;;11.05;7.05;;;;;;;20.84;60.89;99680.16;5244175;28;20074;-73
2022/06/12 06:43:28;;;;;;;13.00;8.30;;;;;;;21.14;60.23;99676.47;5221071;28;20102;-72
2022/06/12 06:46:18;;;;;;;15.77;8.27;;;;;;;21.17;60.49;99685.00;5243733;28;20044;-72
2022/06/12 06:49:09;;;;;;;12.75;7.70;;;;;;;21.44;58.83;99691.44;5216550;28;20425;-72
2022/06/12 06:51:59;;;;;;;12.80;7.43;;;;;;;22.04;58.21;99689.91;5244487;28;20513;-74
2022/06/12 06:54:49;;;;;;;10.10;7.20;;;;;;;23.25;55.13;99693.75;5243917;28;20057;-73
2022/06/12 06:57:42;;;;;;;13.75;7.40;;;;;;;24.11;53.12;99688.16;5241223;28;20217;-73
2022/06/12 07:00:32;;;;;;;7.55;6.82;;;;;;;24.32;53.03;99687.81;5243655;28;20086;-73
2022/06/12 07:03:23;;;;;;;9.18;6.25;;;;;;;25.53;48.09;99680.50;5243165;28;20044;-73
2022/06/12 07:06:15;;;;;;;9.82;6.78;;;;;;;25.93;47.38;99683.66;5240323;28;20075;-73
2022/06/12 07:09:12;;;;;;;7.47;5.85;;;;;;;26.44;49.55;99686.97;5245317;28;20057;-73
2022/06/12 07:12:03;;;;;;;18.13;6.45;;;;;;;26.87;45.10;99685.94;5225318;28;20040;-71
2022/06/12 07:14:53;;;;;;;10.15;6.70;;;;;;;26.83;46.71;99688.31;5238884;28;20058;-72
2022/06/12 07:17:45;;;;;;;12.15;6.70;;;;;;;26.82;46.13;99678.50;5238299;28;20137;-71
2022/06/12 07:20:38;;;;;;;8.23;5.68;;;;;;;27.00;47.09;99676.75;5242636;28;20047;-70
2022/06/12 07:23:30;;;;;;;13.50;5.75;;;;;;;28.03;45.30;99669.84;5241327;28;20059;-70
2022/06/12 07:26:28;;;;;;;11.30;5.78;;;;;;;28.47;43.57;99665.53;5227972;28;20082;-72
2022/06/12 07:29:21;;;;;;;10.68;6.50;;;;;;;28.74;43.40;99667.66;5242325;28;20259;-72
2022/06/12 07:32:11;;;;;;;11.23;5.15;;;;;;;29.16;40.71;99670.03;5242368;28;20055;-72
2022/06/12 07:35:03;;;;;;;8.65;4.72;;;;;;;29.74;40.53;99668.72;5242570;28;20498;-72
2022/06/12 07:37:54;;;;;;;7.93;5.45;;;;;;;28.21;42.92;99669.69;5242890;28;20514;-71
2022/06/12 07:40:52;;;;;;;11.80;5.72;;;;;;;29.35;42.11;99662.41;5238001;28;20040;-75
2022/06/12 07:43:44;;;;;;;7.80;5.05;;;;;;;29.57;39.68;99656.97;5237917;28;21304;-72
2022/06/12 07:46:35;;;;;;;10.10;4.47;;;;;;;30.28;39.29;99665.28;5234226;28;20071;-73
2022/06/12 07:49:28;;;;;;;10.70;4.68;;;;;;;30.44;40.38;99653.44;5227984;28;20078;-73
2022/06/12 07:52:20;;;;;;;9.50;4.88;;;;;;;30.71;37.58;99661.63;5242734;28;20537;-73
2022/06/12 07:55:15;;;;;;;8.40;4.45;;;;;;;30.29;40.27;99656.00;5243959;28;20091;-73
2022/06/12 07:58:06;;;;;;;5.60;4.65;;;;;;;30.31;38.17;99657.41;5229567;28;20411;-73
2022/06/12 08:01:00;;;;;;;10.95;5.20;;;;;;;29.99;38.13;99646.31;5233864;28;20068;-73
2022/06/12 08:03:51;;;;;;;9.43;3.90;;;;;;;31.09;35.78;99648.81;5222587;28;20047;-73
2022/06/12 08:06:41;;;;;;;7.40;4.25;;;;;;;30.58;37.06;99643.72;5243517;28;20760;-73
2022/06/12 08:09:31;;;;;;;4.97;4.05;;;;;;;30.95;36.21;99642.94;5242556;28;20064;-73
2022/06/12 08:12:22;;;;;;;6.45;4.03;;;;;;;29.96;37.02;99638.63;5242552;28;20055;-73
2022/06/12 08:15:17;;;;;;;11.93;3.90;;;;;;;30.91;35.36;99638.28;5243774;28;20199;-73
2022/06/12 08:18:07;;;;;;;6.78;3.88;;;;;;;31.55;36.62;99647.22;5242185;28;20097;-73
2022/06/12 08:21:02;;;;;;;6.03;3.58;;;;;;;31.27;34.96;99636.63;5241360;28;20137;-74
2022/06/12 08:23:58;;;;;;;8.85;3.45;;;;;;;31.93;35.21;99645.22;5232710;28;20060;-73
2022/06/12 08:26:49;;;;;;;5.78;3.40;;;;;;;31.62;34.65;99638.75;5240830;28;20052;-73
2022/06/12 08:29:45;;;;;;;4.95;3.03;;;;;;;31.69;34.84;99642.09;5240677;28;20059;-73
2022/06/12 08:32:36;;;;;;;4.97;2.88;;;;;;;32.17;34.49;99636.53;5241170;28;20079;-73
2022/06/12 08:35:29;;;;;;;9.07;3.67;;;;;;;31.56;34.28;99637.91;5239364;28;20429;-73
2022/06/12 08:38:20;;;;;;;6.35;3.08;;;;;;;31.90;34.72;99631.25;5243026;28;20059;-74
2022/06/12 08:41:21;;;;;;;7.05;3.05;;;;;;;32.52;34.17;99616.59;5230240;28;20596;-73
2022/06/12 08:44:31;;;;;;;7.30;2.50;;;;;;;33.22;31.85;99625.91;5242814;28;20125;-74
2022/06/12 08:47:45;;;;;;;5.10;2.92;;;;;;;32.94;33.88;99612.72;5243901;28;20502;-74
2022/06/12 08:50:44;;;;;;;8.68;2.95;;;;;;;32.16;32.59;99615.69;5243028;28;20056;-72
2022/06/12 08:53:48;;;;;;;5.10;2.70;;;;;;;32.34;33.37;99614.34;5228354;28;20052;-73
2022/06/12 08:56:47;;;;;;;6.53;2.67;;;;;;;32.19;35.74;99604.16;5242292;28;20056;-73
2022/06/12 08:59:51;;;;;;;3.97;2.67;;;;;;;32.35;33.61;99610.50;5243309;28;20290;-73
2022/06/12 09:02:43;;;;;;;6.10;2.83;;;;;;;32.17;36.09;99593.44;5241171;28;20124;-74
2022/06/12 09:06:04;;;;;;;6.60;2.63;;;;;;;32.12;31.81;99596.19;5242444;28;20166;-72
2022/06/12 09:09:25;;;;;;;5.53;2.65;;;;;;;32.97;32.30;99601.22;5241527;28;20415;-74
2022/06/12 09:12:29;;;;;;;3.53;2.63;;;;;;;33.54;30.35;99602.75;5220444;28;20118;-75
2022/06/12 09:15:52;;;;;;;6.05;2.63;;;;;;;32.10;33.73;99598.38;5241485;28;20149;-74
2022/06/12 09:19:06;;;;;;;6.53;2.72;;;;;;;32.90;32.27;99600.66;5187655;28;20185;-74
2022/06/12 09:22:12;;;;;;;5.50;2.78;;;;;;;32.99;31.77;99590.78;5240448;28;20451;-75
2022/06/12 09:25:22;;;;;;;7.20;2.45;;;;;;;31.22;34.04;99595.47;5233701;28;20197;-73
2022/06/12 09:28:39;;;;;;;6.15;2.30;;;;;;;32.58;32.53;99593.50;5242704;28;20059;-75
2022/06/12 09:31:39;;;;;;;4.25;2.20;;;;;;;33.12;31.71;99592.16;5242688;28;20129;-74
2022/06/12 09:34:48;;;;;;;5.40;2.70;;;;;;;33.57;32.41;99585.69;5234105;28;20064;-74
2022/06/12 09:38:18;;;;;;;3.97;2.13;;;;;;;33.97;33.85;99589.34;5227161;28;20040;-74
2022/06/12 09:41:15;;;;;;;7.15;3.03;;;;;;;33.85;31.21;99584.22;5234545;28;20175;-74
2022/06/12 09:44:34;;;;;;;7.40;2.58;;;;;;;33.69;32.54;99579.88;5202981;28;20072;-75
2022/06/12 09:47:38;;;;;;;6.47;2.00;;;;;;;34.43;30.80;99582.75;5220449;28;20051;-77
2022/06/12 09:50:49;;;;;;;5.75;2.15;;;;;;;33.91;30.99;99541.00;5232667;28;20056;-77
2022/06/12 09:53:51;;;;;;;7.07;2.30;;;;;;;33.22;29.52;99570.97;5227716;28;20056;-72
2022/06/12 09:56:49;;;;;;;4.55;1.98;;;;;;;33.06;33.70;99563.03;5235029;28;20045;-75
2022/06/12 09:59:55;;;;;;;11.95;3.53;;;;;;;34.11;33.28;99556.59;5234129;28;20056;-75
2022/06/12 10:02:59;;;;;;;4.05;2.13;;;;;;;34.14;31.33;99553.25;5235072;28;20056;-77
2022/06/12 10:06:00;;;;;;;10.00;3.05;;;;;;;34.59;31.94;99554.84;5226564;28;20549;-75
2022/06/12 10:09:09;;;;;;;3.40;1.40;;;;;;;33.91;28.78;99533.56;5241026;28;20430;-74
2022/06/12 10:12:02;;;;;;;6.78;1.92;;;;;;;33.97;31.03;99547.28;5234101;28;20049;-75
2022/06/12 10:15:03;;;;;;;4.35;2.00;;;;;;;32.60;28.05;99532.88;5229926;28;20054;-77
2022/06/12 10:18:19;;;;;;;4.85;1.88;;;;;;;32.69;30.01;99537.53;5242192;28;20068;-76
2022/06/12 10:21:15;;;;;;;4.15;1.83;;;;;;;33.87;29.64;99540.72;5235496;28;20051;-74
2022/06/12 10:24:06;;;;;;;5.57;2.55;;;;;;;32.86;30.09;99544.63;5232657;28;20052;-75
2022/06/12 10:27:04;;;;;;;5.10;1.90;;;;;;;33.00;32.53;99532.00;5229248;28;20066;-75
2022/06/12 10:30:03;;;;;;;8.10;2.10;;;;;;;33.72;28.45;99540.81;5233241;28;20446;-75
2022/06/12 10:32:56;;;;;;;5.43;1.90;;;;;;;33.90;28.76;99528.34;5241575;28;20064;-74
2022/06/12 10:35:56;;;;;;;9.88;2.72;;;;;;;33.59;32.32;99535.94;5240713;28;20456;-76
2022/06/12 10:38:46;;;;;;;2.80;1.80;;;;;;;32.83;30.79;99529.53;5241206;28;20051;-73
2022/06/12 10:42:00;;;;;;;6.25;2.17;;;;;;;32.17;34.22;99524.88;5236527;28;20059;-76
2022/06/12 10:44:57;;;;;;;6.22;2.20;;;;;;;32.80;31.05;99532.84;5228833;28;20481;-73
2022/06/12 10:47:48;;;;;;;3.90;2.10;;;;;;;32.88;30.66;99523.19;5241050;28;20056;-76
2022/06/12 10:50:55;;;;;;;8.57;2.20;;;;;;;32.96;29.78;99519.94;5244336;28;20521;-72
2022/06/12 10:53:45;;;;;;;4.22;2.10;;;;;;;32.59;33.52;99515.56;5245584;28;20133;-75
2022/06/12 10:56:40;;;;;;;7.00;2.50;;;;;;;33.44;33.09;99507.41;5222890;28;20490;-74
2022/06/12 10:59:40;;;;;;;4.78;1.80;;;;;;;33.61;31.01;99504.31;5241474;28;20146;-73
2022/06/12 11:02:51;;;;;;;4.70;1.80;;;;;;;32.23;29.92;99499.09;5233761;28;20538;-71
2022/06/12 11:06:03;;;;;;;4.38;1.92;;;;;;;32.79;32.35;99490.00;5232256;28;20076;-72
2022/06/12 11:09:32;;;;;;;6.00;2.22;;;;;;;32.04;30.47;99482.31;5240372;28;20052;-73
2022/06/12 11:12:50;;;;;;;3.30;1.88;;;;;;;32.88;30.75;99480.09;5197299;28;20528;-73
2022/06/12 11:16:01;;;;;;;2.75;1.80;;;;;;;33.19;32.95;99478.09;5232374;28;20115;-72
2022/06/12 11:19:04;;;;;;;3.70;2.10;;;;;;;33.16;31.44;99478.66;5230909;28;20505;-74
2022/06/12 11:22:31;;;;;;;6.82;2.80;;;;;;;32.78;31.50;99474.59;5234500;28;20225;-74
2022/06/12 11:25:35;;;;;;;9.60;2.22;;;;;;;33.04;31.91;99466.31;5228044;28;20411;-74
2022/06/12 11:28:41;;;;;;;4.53;2.33;;;;;;;33.13;31.49;99470.97;5237657;28;20060;-72
2022/06/12 11:31:38;;;;;;;6.85;2.60;;;;;;;32.89;32.21;99456.19;5220731;28;20530;-76
2022/06/12 11:34:56;;;;;;;9.02;3.47;;;;;;;33.03;32.01;99461.94;5242150;28;20138;-74
2022/06/12 11:37:55;;;;;;;7.32;3.25;;;;;;;32.47;33.45;99465.63;5230365;28;20048;-72
2022/06/12 11:41:19;;;;;;;3.33;1.65;;;;;;;32.55;30.07;99456.84;5241793;28;20164;-73
2022/06/12 11:44:37;;;;;;;3.88;1.60;;;;;;;31.88;32.62;99449.69;5235869;28;20052;-74
2022/06/12 11:47:50;;;;;;;5.90;2.00;;;;;;;31.86;34.16;99449.94;5223959;28;20125;-72
2022/06/12 11:50:53;;;;;;;6.25;2.40;;;;;;;31.41;34.31;99448.75;5229505;28;20057;-73
2022/06/12 11:54:06;;;;;;;3.00;1.75;;;;;;;31.03;32.34;99444.47;5234432;28;20126;-72
2022/06/12 11:57:10;;;;;;;10.63;3.40;;;;;;;31.29;32.79;99438.00;5237407;28;20049;-72
2022/06/12 12:00:13;;;;;;;4.60;2.20;;;;;;;31.77;36.32;99430.44;5209074;28;20158;-73
2022/06/12 12:03:04;;;;;;;;;;;;;;;32.26;34.26;99434.59;5226453;28;20372;-72
2022/06/12 12:06:00;;;;;;;5.88;2.80;;;;;;;32.61;33.97;99428.25;5228026;28;19927;-73
2022/06/12 12:09:15;;;;;;;9.73;2.35;;;;;;;31.16;33.64;99402.91;5214198;28;20797;-72
2022/06/12 12:12:12;;;;;;;7.40;2.38;;;;;;;31.76;32.55;99403.31;5234028;28;20048;-72
2022/06/12 12:15:10;;;;;;;5.97;2.17;;;;;;;31.30;30.99;99408.69;5234125;28;20055;-73
2022/06/12 12:18:03;;;;;;;4.93;2.42;;;;;;;31.45;33.55;99416.97;5230789;28;20667;-72
2022/06/12 12:20:55;;;;;;;4.65;2.05;;;;;;;31.05;32.17;99404.75;5242220;28;20048;-72
2022/06/12 12:23:47;;;;;;;6.35;2.70;;;;;;;31.35;34.07;99405.97;5223900;28;20048;-72
2022/06/12 12:26:41;;;;;;;8.30;2.45;;;;;;;30.52;33.49;99408.59;5241792;28;20045;-72
2022/06/12 12:29:34;;;;;;;8.43;2.90;;;;;;;30.51;33.31;99410.50;5224953;28;20045;-74
2022/06/12 12:32:25;;;;;;;6.72;2.30;;;;;;;30.79;33.98;99397.53;5217075;28;20505;-72
2022/06/12 12:41:11;;;;;;;5.28;2.40;;;;;;;30.16;34.92;99397.38;5236624;28;20048;-74
2022/06/12 12:41:51;;;;;;;4.97;1.92;;;;;;;29.45;36.89;99406.56;5227728;28;20082;-71
2022/06/12 12:44:42;;;;;;;4.05;2.22;;;;;;;30.11;34.85;99395.44;5221762;28;20099;-69
2022/06/12 12:47:32;;;;;;;5.25;2.40;;;;;;;31.24;33.92;99396.06;5221951;28;20049;-70
2022/06/12 12:50:22;;;;;;;6.13;2.70;;;;;;;31.31;32.69;99386.47;5243016;28;20153;-70
2022/06/12 12:53:26;;;;;;;4.32;2.10;;;;;;;31.42;35.86;99394.75;5242248;28;20049;-71
2022/06/12 12:56:28;;;;;;;5.63;2.47;;;;;;;30.58;33.80;99385.63;5242428;28;20525;-71
2022/06/12 12:59:52;;;;;;;4.43;2.22;;;;;;;31.17;35.64;99388.09;5225215;28;20059;-70
2022/06/12 13:02:53;;;;;;;6.30;2.35;;;;;;;30.97;35.60;99385.31;5241547;28;20102;-70
2022/06/12 13:05:47;;;;;;;5.30;2.47;;;;;;;30.77;34.71;99373.16;5240920;28;20063;-71
2022/06/12 13:09:05;;;;;;;4.05;2.10;;;;;;;30.80;36.86;99380.84;5228586;28;20526;-71
2022/06/12 13:12:07;;;;;;;4.20;1.80;;;;;;;30.88;35.98;99374.84;5224607;28;20048;-70
2022/06/12 13:15:09;;;;;;;3.67;2.25;;;;;;;31.29;35.58;99377.72;5236497;28;20059;-71
2022/06/12 13:18:08;;;;;;;7.25;2.33;;;;;;;30.91;36.55;99378.16;5242978;28;20571;-71
2022/06/12 13:21:23;;;;;;;5.40;2.10;;;;;;;29.42;36.59;99378.94;5227322;28;20055;-71
2022/06/12 13:24:41;;;;;;;6.70;2.05;;;;;;;30.53;36.93;99366.44;5238889;28;20048;-70
2022/06/12 13:27:34;;;;;;;5.68;2.00;;;;;;;30.89;34.60;99375.66;5226619;28;20155;-70
2022/06/12 13:30:32;;;;;;;6.47;2.60;;;;;;;31.35;35.05;99362.97;5240285;28;20131;-71
2022/06/12 13:33:27;;;;;;;5.10;2.25;;;;;;;31.15;34.66;99359.31;5241084;28;20532;-70
2022/06/12 13:36:21;;;;;;;5.15;2.50;;;;;;;30.86;33.77;99351.56;5225867;28;20052;-70
2022/06/12 13:39:36;;;;;;;4.22;2.38;;;;;;;30.64;34.46;99318.88;5240911;28;20182;-72
2022/06/12 13:42:28;;;;;;;5.60;2.35;;;;;;;31.38;35.28;99334.19;5238397;28;20173;-70
2022/06/12 13:45:23;;;;;;;8.80;2.58;;;;;;;31.43;34.63;99334.22;5241007;28;20048;-70
2022/06/12 13:48:20;;;;;;;;;;;;;;;32.20;35.87;99346.00;5239911;28;20057;-71
2022/06/12 13:51:16;;;;;;;4.88;2.03;;;;;;;31.76;33.10;99340.25;5238851;28;20118;-71
2022/06/12 13:54:19;;;;;;;6.72;4.35;;;;;;;31.17;35.51;99335.25;5238087;28;20056;-71
2022/06/12 13:57:22;;;;;;;25.52;14.45;;;;;;;30.80;33.73;99341.72;5237049;28;20071;-72
2022/06/12 14:00:30;;;;;;;11.88;7.53;;;;;;;31.15;34.40;99335.50;5236923;28;20072;-73
2022/06/12 14:03:28;;;;;;;6.68;2.28;;;;;;;31.59;32.43;99324.09;5238902;28;20528;-71
2022/06/12 14:06:23;;;;;;;4.15;1.92;;;;;;;31.01;34.58;99334.38;5240581;28;20147;-71
2022/06/12 14:09:21;;;;;;;7.55;2.50;;;;;;;31.07;35.78;99338.78;5239622;28;20079;-71